sensor_id;sensor_type;location;lat;lon;timestamp;noise_LAeq;noise_LA_min;noise_LA_max;noise_LA01;noise_LA95
11999;Laerm;40817;51.520;9.954;2023-04-25T00:01:50;42.94;38.67;47.54;;
11999;Laerm;40817;51.520;9.954;2023-04-25T00:04:18;43.34;39.58;45.60;;
11999;Laerm;40817;51.520;9.954;2023-04-25T00:06:47;44.04;40.80;47.40;;
11999;Laerm;40817;51.520;9.954;2023-04-25T00:09:15;44.51;40.43;53.58;;
11999;Laerm;40817;51.520;9.954;2023-04-25T00:11:43;43.54;40.03;47.57;;
11999;Laerm;40817;51.520;9.954;2023-04-25T00:14:12;43.23;39.34;50.89;;
11999;Laerm;40817;51.520;9.954;2023-04-25T00:16:39;42.96;39.34;45.39;;
11999;Laerm;40817;51.520;9.954;2023-04-25T00:19:10;42.61;38.81;44.69;;
11999;Laerm;40817;51.520;9.954;2023-04-25T00:21:39;42.79;39.70;47.22;;
11999;Laerm;40817;51.520;9.954;2023-04-25T00:24:07;43.21;39.81;45.54;;
11999;Laerm;40817;51.520;9.954;2023-04-25T00:26:35;43.06;39.46;46.91;;
11999;Laerm;40817;51.520;9.954;2023-04-25T00:29:03;47.79;40.89;62.95;;
11999;Laerm;40817;51.520;9.954;2023-04-25T00:31:32;43.60;40.62;47.02;;
11999;Laerm;40817;51.520;9.954;2023-04-25T00:34:00;43.75;40.13;46.23;;
11999;Laerm;40817;51.520;9.954;2023-04-25T00:36:28;43.38;40.03;45.33;;
11999;Laerm;40817;51.520;9.954;2023-04-25T00:38:56;43.05;39.92;45.01;;
11999;Laerm;40817;51.520;9.954;2023-04-25T00:41:25;43.64;39.92;46.89;;
11999;Laerm;40817;51.520;9.954;2023-04-25T00:43:54;43.37;39.92;45.48;;
11999;Laerm;40817;51.520;9.954;2023-04-25T00:46:23;43.77;40.13;47.12;;
11999;Laerm;40817;51.520;9.954;2023-04-25T00:48:51;43.21;39.81;45.07;;
11999;Laerm;40817;51.520;9.954;2023-04-25T00:51:20;43.28;39.34;45.17;;
11999;Laerm;40817;51.520;9.954;2023-04-25T00:53:49;43.31;39.46;45.27;;
11999;Laerm;40817;51.520;9.954;2023-04-25T00:56:17;42.95;39.58;44.73;;
11999;Laerm;40817;51.520;9.954;2023-04-25T00:58:45;42.88;39.58;46.55;;
11999;Laerm;40817;51.520;9.954;2023-04-25T01:01:13;42.51;38.95;44.65;;
11999;Laerm;40817;51.520;9.954;2023-04-25T01:03:40;42.81;39.81;44.87;;
11999;Laerm;40817;51.520;9.954;2023-04-25T01:06:12;43.20;39.70;50.09;;
11999;Laerm;40817;51.520;9.954;2023-04-25T01:08:40;43.06;39.58;45.20;;
11999;Laerm;40817;51.520;9.954;2023-04-25T01:11:07;42.40;38.67;44.39;;
11999;Laerm;40817;51.520;9.954;2023-04-25T01:13:36;42.33;39.08;45.48;;
11999;Laerm;40817;51.520;9.954;2023-04-25T01:16:04;43.45;39.21;45.99;;
11999;Laerm;40817;51.520;9.954;2023-04-25T01:18:32;43.04;39.58;45.20;;
11999;Laerm;40817;51.520;9.954;2023-04-25T01:21:07;43.35;39.70;47.84;;
11999;Laerm;40817;51.520;9.954;2023-04-25T01:23:37;43.08;39.08;61.83;;
11999;Laerm;40817;51.520;9.954;2023-04-25T01:26:06;42.90;39.70;45.51;;
11999;Laerm;40817;51.520;9.954;2023-04-25T01:28:36;44.02;38.37;67.68;;
11999;Laerm;40817;51.520;9.954;2023-04-25T01:31:05;42.60;37.88;44.76;;
11999;Laerm;40817;51.520;9.954;2023-04-25T01:33:33;42.41;39.08;45.39;;
11999;Laerm;40817;51.520;9.954;2023-04-25T01:36:01;45.75;38.21;59.84;;
11999;Laerm;40817;51.520;9.954;2023-04-25T01:38:30;43.18;38.37;52.24;;
11999;Laerm;40817;51.520;9.954;2023-04-25T01:40:59;42.71;39.21;45.17;;
11999;Laerm;40817;51.520;9.954;2023-04-25T01:43:26;42.79;39.21;45.54;;
11999;Laerm;40817;51.520;9.954;2023-04-25T01:45:54;43.07;39.70;45.36;;
11999;Laerm;40817;51.520;9.954;2023-04-25T01:48:22;43.32;40.33;45.75;;
11999;Laerm;40817;51.520;9.954;2023-04-25T01:50:50;43.04;39.92;45.04;;
11999;Laerm;40817;51.520;9.954;2023-04-25T01:53:17;43.04;39.21;44.97;;
11999;Laerm;40817;51.520;9.954;2023-04-25T01:55:46;43.70;39.81;51.39;;
11999;Laerm;40817;51.520;9.954;2023-04-25T01:58:14;43.58;40.13;50.14;;
11999;Laerm;40817;51.520;9.954;2023-04-25T02:00:41;43.69;39.81;66.75;;
11999;Laerm;40817;51.520;9.954;2023-04-25T02:03:09;43.30;40.03;45.30;;
11999;Laerm;40817;51.520;9.954;2023-04-25T02:05:38;43.36;39.58;45.11;;
11999;Laerm;40817;51.520;9.954;2023-04-25T02:08:08;43.13;39.70;45.66;;
11999;Laerm;40817;51.520;9.954;2023-04-25T02:10:37;43.43;40.33;45.27;;
11999;Laerm;40817;51.520;9.954;2023-04-25T02:13:06;43.54;40.43;45.60;;
11999;Laerm;40817;51.520;9.954;2023-04-25T02:15:33;43.32;40.62;45.45;;
11999;Laerm;40817;51.520;9.954;2023-04-25T02:18:01;44.89;40.71;61.64;;
11999;Laerm;40817;51.520;9.954;2023-04-25T02:20:30;43.65;40.33;46.93;;
11999;Laerm;40817;51.520;9.954;2023-04-25T02:22:58;43.43;40.33;45.36;;
11999;Laerm;40817;51.520;9.954;2023-04-25T02:25:26;44.81;40.03;57.21;;
11999;Laerm;40817;51.520;9.954;2023-04-25T02:27:53;43.34;40.13;45.14;;
11999;Laerm;40817;51.520;9.954;2023-04-25T02:30:22;43.53;40.71;45.20;;
11999;Laerm;40817;51.520;9.954;2023-04-25T02:32:50;43.40;40.03;45.14;;
11999;Laerm;40817;51.520;9.954;2023-04-25T02:35:18;43.65;40.33;49.63;;
11999;Laerm;40817;51.520;9.954;2023-04-25T02:37:46;43.44;40.27;45.01;;
11999;Laerm;40817;51.520;9.954;2023-04-25T02:40:13;43.34;40.62;45.51;;
11999;Laerm;40817;51.520;9.954;2023-04-25T02:42:41;43.40;40.43;45.17;;
11999;Laerm;40817;51.520;9.954;2023-04-25T02:45:10;43.28;40.62;45.01;;
11999;Laerm;40817;51.520;9.954;2023-04-25T02:47:38;43.53;40.80;49.29;;
11999;Laerm;40817;51.520;9.954;2023-04-25T02:50:07;43.81;40.33;54.82;;
11999;Laerm;40817;51.520;9.954;2023-04-25T02:52:35;43.54;40.80;45.07;;
11999;Laerm;40817;51.520;9.954;2023-04-25T02:55:03;43.84;41.14;50.64;;
11999;Laerm;40817;51.520;9.954;2023-04-25T02:57:30;44.02;40.33;55.23;;
11999;Laerm;40817;51.520;9.954;2023-04-25T02:59:58;44.09;40.43;55.07;;
11999;Laerm;40817;51.520;9.954;2023-04-25T03:02:26;44.53;41.06;56.91;;
11999;Laerm;40817;51.520;9.954;2023-04-25T03:05:15;47.61;40.89;61.29;;
11999;Laerm;40817;51.520;9.954;2023-04-25T03:08:03;44.21;41.06;56.06;;
11999;Laerm;40817;51.520;9.954;2023-04-25T03:10:50;44.18;40.23;55.02;;
11999;Laerm;40817;51.520;9.954;2023-04-25T03:13:39;44.66;40.98;56.73;;
11999;Laerm;40817;51.520;9.954;2023-04-25T03:16:07;45.06;40.89;58.15;;
11999;Laerm;40817;51.520;9.954;2023-04-25T03:18:34;46.25;41.06;59.22;;
11999;Laerm;40817;51.520;9.954;2023-04-25T03:21:04;45.18;40.53;60.62;;
11999;Laerm;40817;51.520;9.954;2023-04-25T03:23:32;46.93;40.13;59.07;;
11999;Laerm;40817;51.520;9.954;2023-04-25T03:25:59;45.65;40.89;58.82;;
11999;Laerm;40817;51.520;9.954;2023-04-25T03:28:27;45.72;40.71;61.64;;
11999;Laerm;40817;51.520;9.954;2023-04-25T03:30:55;46.15;40.53;59.90;;
11999;Laerm;40817;51.520;9.954;2023-04-25T03:33:23;46.08;40.71;58.38;;
11999;Laerm;40817;51.520;9.954;2023-04-25T03:35:51;45.47;40.33;60.30;;
11999;Laerm;40817;51.520;9.954;2023-04-25T03:38:20;44.86;41.38;58.94;;
11999;Laerm;40817;51.520;9.954;2023-04-25T03:40:50;43.79;40.53;56.39;;
11999;Laerm;40817;51.520;9.954;2023-04-25T03:43:18;46.10;40.71;57.66;;
11999;Laerm;40817;51.520;9.954;2023-04-25T03:45:45;46.05;40.88;57.25;;
11999;Laerm;40817;51.520;9.954;2023-04-25T03:48:13;46.10;40.33;58.01;;
11999;Laerm;40817;51.520;9.954;2023-04-25T03:50:41;45.94;40.43;58.04;;
11999;Laerm;40817;51.520;9.954;2023-04-25T03:53:09;44.21;40.23;56.67;;
11999;Laerm;40817;51.520;9.954;2023-04-25T03:55:38;44.56;40.13;61.61;;
11999;Laerm;40817;51.520;9.954;2023-04-25T03:58:05;43.15;40.23;49.28;;
11999;Laerm;40817;51.520;9.954;2023-04-25T04:00:35;43.38;40.13;53.08;;
11999;Laerm;40817;51.520;9.954;2023-04-25T04:03:03;43.19;40.13;48.74;;
11999;Laerm;40817;51.520;9.954;2023-04-25T04:05:30;43.77;39.92;52.54;;
11999;Laerm;40817;51.520;9.954;2023-04-25T04:07:58;43.15;39.70;48.81;;
11999;Laerm;40817;51.520;9.954;2023-04-25T04:10:26;43.13;40.43;47.84;;
11999;Laerm;40817;51.520;9.954;2023-04-25T04:12:56;43.54;39.81;48.15;;
11999;Laerm;40817;51.520;9.954;2023-04-25T04:15:24;43.63;40.89;54.72;;
11999;Laerm;40817;51.520;9.954;2023-04-25T04:17:51;43.60;40.80;53.29;;
11999;Laerm;40817;51.520;9.954;2023-04-25T04:20:20;43.53;40.33;58.53;;
11999;Laerm;40817;51.520;9.954;2023-04-25T04:22:48;43.58;41.14;47.42;;
11999;Laerm;40817;51.520;9.954;2023-04-25T04:25:15;43.50;40.43;46.45;;
11999;Laerm;40817;51.520;9.954;2023-04-25T04:27:43;44.22;41.68;52.48;;
11999;Laerm;40817;51.520;9.954;2023-04-25T04:30:12;43.84;41.30;45.83;;
11999;Laerm;40817;51.520;9.954;2023-04-25T04:32:40;43.63;40.53;45.42;;
11999;Laerm;40817;51.520;9.954;2023-04-25T04:35:09;43.91;41.14;48.05;;
11999;Laerm;40817;51.520;9.954;2023-04-25T04:37:37;43.88;40.71;49.94;;
11999;Laerm;40817;51.520;9.954;2023-04-25T04:40:07;43.89;41.53;52.54;;
11999;Laerm;40817;51.520;9.954;2023-04-25T04:42:35;44.22;41.82;46.95;;
11999;Laerm;40817;51.520;9.954;2023-04-25T04:45:04;44.07;41.38;52.43;;
11999;Laerm;40817;51.520;9.954;2023-04-25T04:47:33;44.18;41.38;53.85;;
11999;Laerm;40817;51.520;9.954;2023-04-25T04:50:03;44.43;41.38;54.81;;
11999;Laerm;40817;51.520;9.954;2023-04-25T04:52:33;43.78;41.30;47.00;;
11999;Laerm;40817;51.520;9.954;2023-04-25T04:55:01;45.63;41.68;57.18;;
11999;Laerm;40817;51.520;9.954;2023-04-25T04:57:30;44.79;40.80;56.20;;
11999;Laerm;40817;51.520;9.954;2023-04-25T04:59:59;44.67;41.89;57.20;;
11999;Laerm;40817;51.520;9.954;2023-04-25T05:02:27;44.35;41.06;54.40;;
11999;Laerm;40817;51.520;9.954;2023-04-25T05:04:56;45.61;41.14;66.19;;
11999;Laerm;40817;51.520;9.954;2023-04-25T05:07:24;43.70;40.33;46.97;;
11999;Laerm;40817;51.520;9.954;2023-04-25T05:09:51;44.07;40.62;50.53;;
11999;Laerm;40817;51.520;9.954;2023-04-25T05:12:19;44.20;40.98;52.54;;
11999;Laerm;40817;51.520;9.954;2023-04-25T05:14:46;43.91;41.30;57.26;;
11999;Laerm;40817;51.520;9.954;2023-04-25T05:17:14;43.72;40.27;50.88;;
11999;Laerm;40817;51.520;9.954;2023-04-25T05:19:41;44.43;40.62;65.97;;
11999;Laerm;40817;51.520;9.954;2023-04-25T05:22:10;45.60;40.03;66.92;;
11999;Laerm;40817;51.520;9.954;2023-04-25T05:24:38;43.52;40.71;47.28;;
11999;Laerm;40817;51.520;9.954;2023-04-25T05:27:05;43.82;40.53;52.81;;
11999;Laerm;40817;51.520;9.954;2023-04-25T05:29:33;44.21;40.89;53.20;;
11999;Laerm;40817;51.520;9.954;2023-04-25T05:32:01;44.56;41.46;58.92;;
11999;Laerm;40817;51.520;9.954;2023-04-25T05:34:28;48.40;41.75;67.83;;
11999;Laerm;40817;51.520;9.954;2023-04-25T05:36:56;52.37;42.65;73.81;;
11999;Laerm;40817;51.520;9.954;2023-04-25T05:39:25;56.01;41.96;75.82;;
11999;Laerm;40817;51.520;9.954;2023-04-25T05:41:53;59.82;42.41;86.01;;
11999;Laerm;40817;51.520;9.954;2023-04-25T05:44:21;59.32;42.09;82.02;;
11999;Laerm;40817;51.520;9.954;2023-04-25T05:46:49;59.28;41.38;83.00;;
11999;Laerm;40817;51.520;9.954;2023-04-25T05:49:17;58.89;41.75;76.99;;
11999;Laerm;40817;51.520;9.954;2023-04-25T05:51:44;58.72;41.30;77.38;;
11999;Laerm;40817;51.520;9.954;2023-04-25T05:54:12;57.85;41.68;76.99;;
11999;Laerm;40817;51.520;9.954;2023-04-25T05:56:43;54.36;41.96;77.08;;
11999;Laerm;40817;51.520;9.954;2023-04-25T05:59:11;51.15;40.89;75.51;;
11999;Laerm;40817;51.520;9.954;2023-04-25T06:01:38;50.53;40.98;75.46;;
11999;Laerm;40817;51.520;9.954;2023-04-25T06:04:06;50.51;40.62;75.02;;
11999;Laerm;40817;51.520;9.954;2023-04-25T06:06:34;48.03;41.30;74.46;;
11999;Laerm;40817;51.520;9.954;2023-04-25T06:09:02;44.46;41.14;59.69;;
11999;Laerm;40817;51.520;9.954;2023-04-25T06:11:30;44.29;40.71;59.67;;
11999;Laerm;40817;51.520;9.954;2023-04-25T06:13:59;44.39;41.30;61.78;;
11999;Laerm;40817;51.520;9.954;2023-04-25T06:16:27;44.00;40.89;58.76;;
11999;Laerm;40817;51.520;9.954;2023-04-25T06:18:55;44.45;41.30;58.81;;
11999;Laerm;40817;51.520;9.954;2023-04-25T06:21:23;45.00;40.89;59.06;;
11999;Laerm;40817;51.520;9.954;2023-04-25T06:23:50;43.82;40.71;59.14;;
11999;Laerm;40817;51.520;9.954;2023-04-25T06:26:18;43.53;39.21;67.99;;
11999;Laerm;40817;51.520;9.954;2023-04-25T06:28:46;43.34;38.95;61.64;;
11999;Laerm;40817;51.520;9.954;2023-04-25T06:31:15;43.22;38.52;56.30;;
11999;Laerm;40817;51.520;9.954;2023-04-25T06:33:42;43.18;40.23;57.43;;
11999;Laerm;40817;51.520;9.954;2023-04-25T06:36:10;43.57;40.03;62.41;;
11999;Laerm;40817;51.520;9.954;2023-04-25T06:38:39;58.80;40.89;76.79;;
11999;Laerm;40817;51.520;9.954;2023-04-25T06:41:06;43.50;40.33;58.49;;
11999;Laerm;40817;51.520;9.954;2023-04-25T06:43:34;47.62;40.43;71.59;;
11999;Laerm;40817;51.520;9.954;2023-04-25T06:46:02;48.22;40.13;64.93;;
11999;Laerm;40817;51.520;9.954;2023-04-25T06:48:32;44.77;41.22;58.55;;
11999;Laerm;40817;51.520;9.954;2023-04-25T06:50:59;43.22;39.92;52.06;;
11999;Laerm;40817;51.520;9.954;2023-04-25T06:53:27;42.74;39.70;58.33;;
11999;Laerm;40817;51.520;9.954;2023-04-25T06:55:55;43.63;40.89;55.48;;
11999;Laerm;40817;51.520;9.954;2023-04-25T06:58:23;44.42;40.23;58.84;;
11999;Laerm;40817;51.520;9.954;2023-04-25T07:00:50;50.65;41.89;71.61;;
11999;Laerm;40817;51.520;9.954;2023-04-25T07:03:18;47.76;42.41;67.92;;
11999;Laerm;40817;51.520;9.954;2023-04-25T07:05:48;43.99;40.89;57.50;;
11999;Laerm;40817;51.520;9.954;2023-04-25T07:08:16;44.91;40.53;59.73;;
11999;Laerm;40817;51.520;9.954;2023-04-25T07:10:44;47.75;41.82;67.44;;
11999;Laerm;40817;51.520;9.954;2023-04-25T07:13:12;45.94;41.30;68.86;;
11999;Laerm;40817;51.520;9.954;2023-04-25T07:15:40;45.27;40.89;60.08;;
11999;Laerm;40817;51.520;9.954;2023-04-25T07:18:08;47.72;41.14;69.94;;
11999;Laerm;40817;51.520;9.954;2023-04-25T07:20:36;45.88;41.46;71.43;;
11999;Laerm;40817;51.520;9.954;2023-04-25T07:23:05;47.69;42.03;71.68;;
11999;Laerm;40817;51.520;9.954;2023-04-25T07:25:33;48.47;41.61;74.68;;
11999;Laerm;40817;51.520;9.954;2023-04-25T07:28:01;51.76;42.47;70.85;;
11999;Laerm;40817;51.520;9.954;2023-04-25T07:30:29;53.77;41.89;76.31;;
11999;Laerm;40817;51.520;9.954;2023-04-25T07:32:57;48.44;41.89;66.88;;
11999;Laerm;40817;51.520;9.954;2023-04-25T07:35:24;46.91;41.46;70.92;;
11999;Laerm;40817;51.520;9.954;2023-04-25T07:37:52;45.22;41.30;64.30;;
11999;Laerm;40817;51.520;9.954;2023-04-25T07:40:21;46.33;40.80;72.59;;
11999;Laerm;40817;51.520;9.954;2023-04-25T07:42:48;44.79;41.14;62.93;;
11999;Laerm;40817;51.520;9.954;2023-04-25T07:45:20;45.60;40.89;63.28;;
11999;Laerm;40817;51.520;9.954;2023-04-25T07:47:47;44.94;41.30;66.54;;
11999;Laerm;40817;51.520;9.954;2023-04-25T07:50:15;43.99;40.71;64.01;;
11999;Laerm;40817;51.520;9.954;2023-04-25T07:52:51;45.51;40.80;62.86;;
11999;Laerm;40817;51.520;9.954;2023-04-25T07:55:19;50.15;39.70;68.44;;
11999;Laerm;40817;51.520;9.954;2023-04-25T07:57:47;44.17;39.81;60.16;;
11999;Laerm;40817;51.520;9.954;2023-04-25T08:00:16;45.28;40.89;61.00;;
11999;Laerm;40817;51.520;9.954;2023-04-25T08:02:43;44.70;41.14;60.34;;
11999;Laerm;40817;51.520;9.954;2023-04-25T08:05:11;44.06;40.23;61.84;;
11999;Laerm;40817;51.520;9.954;2023-04-25T08:07:41;44.65;40.23;69.93;;
11999;Laerm;40817;51.520;9.954;2023-04-25T08:10:10;43.46;39.92;55.93;;
11999;Laerm;40817;51.520;9.954;2023-04-25T08:12:39;43.50;40.53;51.68;;
11999;Laerm;40817;51.520;9.954;2023-04-25T08:15:08;43.81;40.43;56.92;;
11999;Laerm;40817;51.520;9.954;2023-04-25T08:17:36;45.61;40.13;66.51;;
11999;Laerm;40817;51.520;9.954;2023-04-25T08:20:06;43.18;39.21;58.09;;
11999;Laerm;40817;51.520;9.954;2023-04-25T08:22:35;44.81;40.71;65.89;;
11999;Laerm;40817;51.520;9.954;2023-04-25T08:25:04;43.78;40.62;59.27;;
11999;Laerm;40817;51.520;9.954;2023-04-25T08:27:31;44.70;40.23;63.56;;
11999;Laerm;40817;51.520;9.954;2023-04-25T08:30:00;45.68;41.75;64.57;;
11999;Laerm;40817;51.520;9.954;2023-04-25T08:32:29;43.51;40.89;55.95;;
11999;Laerm;40817;51.520;9.954;2023-04-25T08:34:57;44.34;40.98;55.38;;
11999;Laerm;40817;51.520;9.954;2023-04-25T08:37:24;48.25;41.46;69.99;;
11999;Laerm;40817;51.520;9.954;2023-04-25T08:39:52;44.68;40.80;70.67;;
11999;Laerm;40817;51.520;9.954;2023-04-25T08:42:21;43.40;39.34;55.65;;
11999;Laerm;40817;51.520;9.954;2023-04-25T08:44:50;44.17;41.14;56.17;;
11999;Laerm;40817;51.520;9.954;2023-04-25T08:47:22;43.95;40.98;50.72;;
11999;Laerm;40817;51.520;9.954;2023-04-25T08:49:51;44.56;39.08;58.63;;
11999;Laerm;40817;51.520;9.954;2023-04-25T08:52:23;45.28;40.03;74.11;;
11999;Laerm;40817;51.520;9.954;2023-04-25T08:54:51;43.49;40.62;50.47;;
11999;Laerm;40817;51.520;9.954;2023-04-25T08:57:21;43.81;40.23;53.61;;
11999;Laerm;40817;51.520;9.954;2023-04-25T08:59:49;43.76;40.53;53.58;;
11999;Laerm;40817;51.520;9.954;2023-04-25T09:02:20;43.75;40.43;54.47;;
11999;Laerm;40817;51.520;9.954;2023-04-25T09:04:49;44.17;41.38;59.10;;
11999;Laerm;40817;51.520;9.954;2023-04-25T09:07:16;45.19;41.61;61.48;;
11999;Laerm;40817;51.520;9.954;2023-04-25T09:09:47;51.23;41.61;69.24;;
11999;Laerm;40817;51.520;9.954;2023-04-25T09:12:15;44.35;40.80;59.10;;
11999;Laerm;40817;51.520;9.954;2023-04-25T09:15:06;43.94;41.53;59.02;;
11999;Laerm;40817;51.520;9.954;2023-04-25T09:17:35;44.10;41.46;56.27;;
11999;Laerm;40817;51.520;9.954;2023-04-25T09:20:09;45.73;41.46;68.89;;
11999;Laerm;40817;51.520;9.954;2023-04-25T09:22:40;46.36;40.98;70.71;;
11999;Laerm;40817;51.520;9.954;2023-04-25T09:25:10;44.50;41.38;57.24;;
11999;Laerm;40817;51.520;9.954;2023-04-25T09:27:50;46.07;38.60;63.89;;
11999;Laerm;40817;51.520;9.954;2023-04-25T09:30:19;44.32;40.98;55.67;;
11999;Laerm;40817;51.520;9.954;2023-04-25T09:33:03;43.72;41.06;47.63;;
11999;Laerm;40817;51.520;9.954;2023-04-25T09:35:36;44.46;41.89;62.36;;
11999;Laerm;40817;51.520;9.954;2023-04-25T09:38:10;45.03;41.14;57.89;;
11999;Laerm;40817;51.520;9.954;2023-04-25T09:40:42;46.37;41.38;71.44;;
11999;Laerm;40817;51.520;9.954;2023-04-25T09:43:14;44.21;41.38;54.25;;
11999;Laerm;40817;51.520;9.954;2023-04-25T09:45:44;45.71;40.62;70.57;;
11999;Laerm;40817;51.520;9.954;2023-04-25T09:48:21;44.37;40.89;55.60;;
11999;Laerm;40817;51.520;9.954;2023-04-25T09:51:06;43.96;41.22;51.70;;
11999;Laerm;40817;51.520;9.954;2023-04-25T09:53:39;43.88;40.80;52.46;;
11999;Laerm;40817;51.520;9.954;2023-04-25T09:56:09;44.22;41.22;52.54;;
11999;Laerm;40817;51.520;9.954;2023-04-25T09:58:39;43.91;41.22;58.91;;
11999;Laerm;40817;51.520;9.954;2023-04-25T10:01:09;49.53;40.80;62.76;;
11999;Laerm;40817;51.520;9.954;2023-04-25T10:03:40;51.41;40.80;67.90;;
11999;Laerm;40817;51.520;9.954;2023-04-25T10:06:12;43.62;41.22;48.77;;
11999;Laerm;40817;51.520;9.954;2023-04-25T10:08:41;43.42;41.06;54.20;;
11999;Laerm;40817;51.520;9.954;2023-04-25T10:11:09;43.99;41.14;58.63;;
11999;Laerm;40817;51.520;9.954;2023-04-25T10:13:37;46.21;41.75;63.15;;
11999;Laerm;40817;51.520;9.954;2023-04-25T10:16:05;46.37;41.46;63.62;;
11999;Laerm;40817;51.520;9.954;2023-04-25T10:18:33;56.01;39.81;73.71;;
11999;Laerm;40817;51.520;9.954;2023-04-25T10:21:04;47.25;41.89;62.81;;
11999;Laerm;40817;51.520;9.954;2023-04-25T10:23:33;43.78;41.30;49.43;;
11999;Laerm;40817;51.520;9.954;2023-04-25T10:26:02;45.62;41.61;59.63;;
11999;Laerm;40817;51.520;9.954;2023-04-25T10:28:30;44.26;41.06;56.68;;
11999;Laerm;40817;51.520;9.954;2023-04-25T10:31:18;44.42;41.38;58.14;;
11999;Laerm;40817;51.520;9.954;2023-04-25T10:33:46;43.88;41.06;52.21;;
11999;Laerm;40817;51.520;9.954;2023-04-25T10:36:19;44.12;41.22;56.80;;
11999;Laerm;40817;51.520;9.954;2023-04-25T10:38:49;44.62;41.53;64.42;;
11999;Laerm;40817;51.520;9.954;2023-04-25T10:41:21;44.50;38.67;62.65;;
11999;Laerm;40817;51.520;9.954;2023-04-25T10:43:50;45.47;40.71;62.76;;
11999;Laerm;40817;51.520;9.954;2023-04-25T10:46:29;44.40;40.62;64.61;;
11999;Laerm;40817;51.520;9.954;2023-04-25T10:48:59;48.02;40.71;62.58;;
11999;Laerm;40817;51.520;9.954;2023-04-25T10:51:30;44.78;40.53;57.69;;
11999;Laerm;40817;51.520;9.954;2023-04-25T10:54:01;45.63;41.06;64.39;;
11999;Laerm;40817;51.520;9.954;2023-04-25T10:56:33;45.73;41.46;58.51;;
11999;Laerm;40817;51.520;9.954;2023-04-25T10:59:10;45.45;41.75;57.50;;
11999;Laerm;40817;51.520;9.954;2023-04-25T11:01:40;47.29;40.89;66.11;;
11999;Laerm;40817;51.520;9.954;2023-04-25T11:04:21;52.95;40.62;72.81;;
11999;Laerm;40817;51.520;9.954;2023-04-25T11:07:07;43.96;41.19;56.56;;
11999;Laerm;40817;51.520;9.954;2023-04-25T11:09:40;43.52;39.34;49.18;;
11999;Laerm;40817;51.520;9.954;2023-04-25T11:12:09;43.85;40.54;52.48;;
11999;Laerm;40817;51.520;9.954;2023-04-25T11:14:38;44.12;41.22;57.66;;
11999;Laerm;40817;51.520;9.954;2023-04-25T11:17:05;43.80;41.06;49.34;;
11999;Laerm;40817;51.520;9.954;2023-04-25T11:19:33;46.22;41.06;58.84;;
11999;Laerm;40817;51.520;9.954;2023-04-25T11:22:03;50.67;41.82;68.07;;
11999;Laerm;40817;51.520;9.954;2023-04-25T11:24:34;46.87;42.16;67.15;;
11999;Laerm;40817;51.520;9.954;2023-04-25T11:27:04;47.53;41.06;63.51;;
11999;Laerm;40817;51.520;9.954;2023-04-25T11:29:34;44.45;41.46;53.64;;
11999;Laerm;40817;51.520;9.954;2023-04-25T11:32:03;46.24;40.80;71.77;;
11999;Laerm;40817;51.520;9.954;2023-04-25T11:34:32;50.03;39.70;68.98;;
11999;Laerm;40817;51.520;9.954;2023-04-25T11:37:03;50.05;39.46;69.62;;
11999;Laerm;40817;51.520;9.954;2023-04-25T11:39:32;51.43;40.98;67.72;;
11999;Laerm;40817;51.520;9.954;2023-04-25T11:41:59;50.16;41.38;69.50;;
11999;Laerm;40817;51.520;9.954;2023-04-25T11:44:28;51.19;41.75;71.24;;
11999;Laerm;40817;51.520;9.954;2023-04-25T11:46:57;47.98;41.46;65.47;;
11999;Laerm;40817;51.520;9.954;2023-04-25T11:49:25;47.12;41.38;66.66;;
11999;Laerm;40817;51.520;9.954;2023-04-25T11:51:57;48.66;41.30;66.51;;
11999;Laerm;40817;51.520;9.954;2023-04-25T11:54:26;46.67;41.22;72.55;;
11999;Laerm;40817;51.520;9.954;2023-04-25T11:56:55;48.84;41.46;75.76;;
11999;Laerm;40817;51.520;9.954;2023-04-25T11:59:25;44.27;40.23;52.92;;
11999;Laerm;40817;51.520;9.954;2023-04-25T12:01:53;44.23;41.06;60.21;;
11999;Laerm;40817;51.520;9.954;2023-04-25T12:04:23;43.99;41.46;54.16;;
11999;Laerm;40817;51.520;9.954;2023-04-25T12:06:54;44.01;40.13;53.82;;
11999;Laerm;40817;51.520;9.954;2023-04-25T12:09:30;46.06;40.98;65.75;;
11999;Laerm;40817;51.520;9.954;2023-04-25T12:12:00;44.63;41.38;58.28;;
11999;Laerm;40817;51.520;9.954;2023-04-25T12:14:34;45.75;41.38;71.96;;
11999;Laerm;40817;51.520;9.954;2023-04-25T12:17:04;48.24;41.14;66.88;;
11999;Laerm;40817;51.520;9.954;2023-04-25T12:19:36;51.16;40.71;72.09;;
11999;Laerm;40817;51.520;9.954;2023-04-25T12:22:20;43.61;40.23;53.03;;
11999;Laerm;40817;51.520;9.954;2023-04-25T12:24:50;45.13;40.71;63.51;;
11999;Laerm;40817;51.520;9.954;2023-04-25T12:27:19;46.28;41.38;61.70;;
11999;Laerm;40817;51.520;9.954;2023-04-25T12:29:54;50.28;41.89;69.28;;
11999;Laerm;40817;51.520;9.954;2023-04-25T12:32:23;47.73;41.46;67.26;;
11999;Laerm;40817;51.520;9.954;2023-04-25T12:34:51;48.48;41.89;63.01;;
11999;Laerm;40817;51.520;9.954;2023-04-25T12:37:19;45.23;41.53;62.31;;
11999;Laerm;40817;51.520;9.954;2023-04-25T12:39:48;44.74;40.33;66.31;;
11999;Laerm;40817;51.520;9.954;2023-04-25T12:42:17;45.39;41.38;62.55;;
11999;Laerm;40817;51.520;9.954;2023-04-25T12:44:44;52.13;41.61;70.57;;
11999;Laerm;40817;51.520;9.954;2023-04-25T12:47:13;47.06;42.47;59.06;;
11999;Laerm;40817;51.520;9.954;2023-04-25T12:49:41;48.35;42.53;58.42;;
11999;Laerm;40817;51.520;9.954;2023-04-25T12:52:09;47.28;41.68;67.00;;
11999;Laerm;40817;51.520;9.954;2023-04-25T12:54:37;46.02;41.75;57.62;;
11999;Laerm;40817;51.520;9.954;2023-04-25T12:57:06;52.42;42.35;72.29;;
11999;Laerm;40817;51.520;9.954;2023-04-25T12:59:34;49.08;41.82;63.33;;
11999;Laerm;40817;51.520;9.954;2023-04-25T13:02:02;48.36;41.82;63.16;;
11999;Laerm;40817;51.520;9.954;2023-04-25T13:04:30;45.54;40.98;70.08;;
11999;Laerm;40817;51.520;9.954;2023-04-25T13:06:58;45.51;40.80;68.85;;
11999;Laerm;40817;51.520;9.954;2023-04-25T13:09:26;51.12;41.82;72.35;;
11999;Laerm;40817;51.520;9.954;2023-04-25T13:11:54;46.56;41.61;60.19;;
11999;Laerm;40817;51.520;9.954;2023-04-25T13:14:23;46.84;42.88;54.19;;
11999;Laerm;40817;51.520;9.954;2023-04-25T13:16:51;46.78;42.93;58.51;;
11999;Laerm;40817;51.520;9.954;2023-04-25T13:19:20;45.74;42.03;58.24;;
11999;Laerm;40817;51.520;9.954;2023-04-25T13:21:48;47.70;40.71;65.26;;
11999;Laerm;40817;51.520;9.954;2023-04-25T13:24:16;51.60;41.14;68.44;;
11999;Laerm;40817;51.520;9.954;2023-04-25T13:26:44;52.38;41.30;67.22;;
11999;Laerm;40817;51.520;9.954;2023-04-25T13:29:12;50.08;40.98;67.62;;
11999;Laerm;40817;51.520;9.954;2023-04-25T13:31:41;49.68;41.89;68.71;;
11999;Laerm;40817;51.520;9.954;2023-04-25T13:34:09;47.28;41.82;61.76;;
11999;Laerm;40817;51.520;9.954;2023-04-25T13:36:38;47.92;41.46;61.55;;
11999;Laerm;40817;51.520;9.954;2023-04-25T13:39:06;47.65;42.53;64.56;;
11999;Laerm;40817;51.520;9.954;2023-04-25T13:41:34;46.11;42.35;54.16;;
11999;Laerm;40817;51.520;9.954;2023-04-25T13:44:02;47.01;41.89;59.03;;
11999;Laerm;40817;51.520;9.954;2023-04-25T13:46:30;46.36;41.96;62.02;;
11999;Laerm;40817;51.520;9.954;2023-04-25T13:48:59;45.12;42.22;55.20;;
11999;Laerm;40817;51.520;9.954;2023-04-25T13:51:27;44.70;41.22;66.26;;
11999;Laerm;40817;51.520;9.954;2023-04-25T13:53:55;45.36;41.06;60.26;;
11999;Laerm;40817;51.520;9.954;2023-04-25T13:56:22;45.07;41.61;57.56;;